Manchester by the Sea, Massachusetts
Current Conditions -  °F | °C
As of 4:53 AM on Wednesday 26 Nov 2014 (Local Time) from KBVY Reporting Station
Clear Clear  
Wind Chill: 44°   Ceiling: Unl
Heat Index: 44°   Visibility: 10mi
Dew Point: 28°   Wind: 3mph
Humidity: 53%   Direction: 290°WNW
Pressure: 30.19"   Gusts: NA
Location:  42.5824°N, 70.7694°W
Report Text: KBVY 260953Z AUTO 29003KT 10SM CLR 07/M02 A3019 RMK AO2 SLP219 T00671022
Loading
Personal Weather Stations






























Interactive Weather Map New forecast layout! Learn more

10-Day Weather Forecast

Advertisements
Track Severe Weather on mobile